createdAt,value
2023-02-15T00:01:22.886Z,72.50
2023-02-15T00:03:52.261Z,72.20
2023-02-15T00:06:21.176Z,72.30
2023-02-15T00:08:50.144Z,72.00
2023-02-15T00:11:38.899Z,72.40
2023-02-15T00:14:15.948Z,72.60
2023-02-15T00:16:46.077Z,72.10
2023-02-15T00:19:17.424Z,72.10
2023-02-15T00:21:47.573Z,72.40
2023-02-15T00:24:19.292Z,72.30
2023-02-15T00:26:49.174Z,72.20
2023-02-15T00:29:20.344Z,72.00
2023-02-15T00:31:50.363Z,72.40
2023-02-15T00:34:31.062Z,73.30
2023-02-15T00:37:00.230Z,72.50
2023-02-15T00:39:31.015Z,73.00
2023-02-15T00:42:00.088Z,72.20
2023-02-15T00:44:29.126Z,72.40
2023-02-15T00:46:58.106Z,72.10
2023-02-15T00:49:27.068Z,72.10
2023-02-15T00:51:56.020Z,72.30
2023-02-15T00:54:25.238Z,72.00
2023-02-15T00:56:54.155Z,71.90
2023-02-15T00:59:23.095Z,72.00
2023-02-15T01:01:52.011Z,71.90
2023-02-15T01:04:20.962Z,72.20
2023-02-15T01:06:49.982Z,72.50
2023-02-15T01:09:18.865Z,72.00
2023-02-15T01:12:02.739Z,71.80
2023-02-15T01:14:33.234Z,71.30
2023-02-15T01:17:05.116Z,71.70
2023-02-15T01:19:35.175Z,72.10
2023-02-15T01:22:04.284Z,72.30
2023-02-15T01:24:33.381Z,71.90
2023-02-15T01:27:02.330Z,71.30
2023-02-15T01:29:31.277Z,71.40
2023-02-15T01:32:00.282Z,72.00
2023-02-15T01:34:29.269Z,71.00
2023-02-15T01:36:58.144Z,71.00
2023-02-15T01:39:27.116Z,70.90
2023-02-15T01:41:56.346Z,70.90
2023-02-15T01:44:49.665Z,70.70
2023-02-15T01:47:41.145Z,70.70
2023-02-15T01:50:27.840Z,70.50
2023-02-15T01:53:09.022Z,70.00
2023-02-15T01:55:49.728Z,70.00
2023-02-15T01:58:19.231Z,69.80
2023-02-15T02:00:48.291Z,69.50
2023-02-15T02:03:18.017Z,69.30
2023-02-15T02:05:46.947Z,69.10
2023-02-15T02:08:16.051Z,68.80
2023-02-15T02:10:48.093Z,68.60
2023-02-15T02:13:17.201Z,68.50
2023-02-15T02:15:55.295Z,68.20
2023-02-15T02:18:31.792Z,68.20
2023-02-15T02:21:44.534Z,68.20
2023-02-15T02:25:01.302Z,67.40
2023-02-15T02:27:36.373Z,67.40
2023-02-15T02:30:11.102Z,67.50
2023-02-15T02:33:04.735Z,67.40
2023-02-15T02:35:55.962Z,67.00
2023-02-15T02:38:43.250Z,67.20
2023-02-15T02:41:38.641Z,67.10
2023-02-15T02:44:23.701Z,66.90
2023-02-15T02:47:28.130Z,67.00
2023-02-15T02:50:03.959Z,67.00
2023-02-15T02:52:48.874Z,66.40
2023-02-15T02:55:45.508Z,66.80
2023-02-15T02:58:29.271Z,67.10
2023-02-15T03:01:08.380Z,67.30
2023-02-15T03:03:42.593Z,67.20
2023-02-15T03:06:22.827Z,67.10
2023-02-15T03:08:57.198Z,67.00
2023-02-15T03:11:26.280Z,67.00
2023-02-15T03:13:55.364Z,67.00
2023-02-15T03:16:30.859Z,66.90
2023-02-15T03:19:15.684Z,67.00
2023-02-15T03:22:22.421Z,67.00
2023-02-15T03:24:59.100Z,67.20
2023-02-15T03:27:34.834Z,67.10
2023-02-15T03:30:06.094Z,67.00
2023-02-15T03:32:36.937Z,67.20
2023-02-15T03:35:06.567Z,67.10
2023-02-15T03:37:43.291Z,67.10
2023-02-15T03:40:43.665Z,67.10
2023-02-15T03:43:28.691Z,67.20
2023-02-15T03:46:08.288Z,67.10
2023-02-15T03:48:44.479Z,67.00
2023-02-15T03:51:36.114Z,67.00
2023-02-15T03:54:07.254Z,66.70
2023-02-15T03:56:38.700Z,66.70
2023-02-15T03:59:25.815Z,66.70
2023-02-15T04:02:27.030Z,66.60
2023-02-15T04:04:55.932Z,66.30
2023-02-15T04:07:25.041Z,66.00
2023-02-15T04:10:12.182Z,65.80
2023-02-15T04:12:41.041Z,65.70
2023-02-15T04:15:32.587Z,65.10
2023-02-15T04:18:01.559Z,64.90
2023-02-15T04:20:48.886Z,65.00
2023-02-15T04:23:36.168Z,64.70
2023-02-15T04:26:08.404Z,64.60
2023-02-15T04:28:37.732Z,64.50
2023-02-15T04:31:06.640Z,64.30
2023-02-15T04:33:38.479Z,64.60
2023-02-15T04:36:08.758Z,65.10
2023-02-15T04:38:37.846Z,63.90
2023-02-15T04:41:06.748Z,64.20
2023-02-15T04:43:35.636Z,64.20
2023-02-15T04:46:04.862Z,63.70
2023-02-15T04:48:34.165Z,63.20
2023-02-15T04:51:09.172Z,63.20
2023-02-15T04:53:38.434Z,63.10
2023-02-15T04:56:07.366Z,63.10
2023-02-15T04:58:37.223Z,62.30
2023-02-15T05:01:09.232Z,62.50
2023-02-15T05:03:38.429Z,63.00
2023-02-15T05:06:10.710Z,62.60
2023-02-15T05:08:39.674Z,62.40
2023-02-15T05:11:10.380Z,62.40
2023-02-15T05:13:39.492Z,62.70
2023-02-15T05:16:08.369Z,62.70
2023-02-15T05:18:37.253Z,62.10
2023-02-15T05:21:06.666Z,62.30
2023-02-15T05:23:35.577Z,62.50
2023-02-15T05:26:22.571Z,62.10
2023-02-15T05:28:51.442Z,62.00
2023-02-15T05:31:21.518Z,61.80
2023-02-15T05:33:50.785Z,61.70
2023-02-15T05:36:19.700Z,62.10
2023-02-15T05:38:48.588Z,62.10
2023-02-15T05:41:17.444Z,62.40
2023-02-15T05:43:46.360Z,62.20
2023-02-15T05:46:15.490Z,62.30
2023-02-15T05:48:44.374Z,62.00
2023-02-15T05:51:16.104Z,62.30
2023-02-15T05:53:45.121Z,63.50
2023-02-15T05:56:14.749Z,63.20
2023-02-15T05:58:44.463Z,63.50
2023-02-15T06:01:23.993Z,63.70
2023-02-15T06:03:54.074Z,63.70
2023-02-15T06:06:23.025Z,63.80
2023-02-15T06:08:52.111Z,64.00
2023-02-15T06:11:21.084Z,64.00
2023-02-15T06:13:50.033Z,63.90
2023-02-15T06:16:18.951Z,63.60
2023-02-15T06:18:47.935Z,63.70
2023-02-15T06:21:17.120Z,63.60
2023-02-15T06:23:46.021Z,63.40
2023-02-15T06:26:14.988Z,63.30
2023-02-15T06:28:43.921Z,63.30
2023-02-15T06:31:13.255Z,63.20
2023-02-15T06:33:43.787Z,63.10
2023-02-15T06:36:12.878Z,63.30
2023-02-15T06:38:41.823Z,63.10
2023-02-15T06:41:10.796Z,63.20
2023-02-15T06:43:40.933Z,63.10
2023-02-15T06:46:10.139Z,62.90
2023-02-15T06:48:39.046Z,63.00
2023-02-15T06:51:08.113Z,63.00
2023-02-15T06:53:37.816Z,63.00
2023-02-15T06:56:10.978Z,62.40
2023-02-15T06:58:45.454Z,62.50
2023-02-15T07:01:14.816Z,62.20
2023-02-15T07:03:43.793Z,62.20
2023-02-15T07:06:13.431Z,62.20
2023-02-15T07:08:42.585Z,62.00
2023-02-15T07:11:29.662Z,62.10
2023-02-15T07:13:58.877Z,61.80
2023-02-15T07:16:27.831Z,62.40
2023-02-15T07:18:56.761Z,62.00
2023-02-15T07:21:25.637Z,62.10
2023-02-15T07:23:54.707Z,61.80
2023-02-15T07:26:23.579Z,61.60
2023-02-15T07:28:52.535Z,61.30
2023-02-15T07:31:21.523Z,61.00
2023-02-15T07:33:50.397Z,60.30
2023-02-15T07:36:19.264Z,60.60
2023-02-15T07:38:48.211Z,60.10
2023-02-15T07:41:18.335Z,59.90
2023-02-15T07:43:48.335Z,59.60
2023-02-15T07:46:18.998Z,59.50
2023-02-15T07:48:48.087Z,59.40
2023-02-15T07:51:17.911Z,58.70
2023-02-15T07:53:47.039Z,58.80
2023-02-15T07:56:17.147Z,58.50
2023-02-15T07:58:55.134Z,58.20
2023-02-15T08:01:35.660Z,58.70
2023-02-15T08:04:06.113Z,57.90
2023-02-15T08:06:37.699Z,58.50
2023-02-15T08:09:08.330Z,58.40
2023-02-15T08:11:44.863Z,58.60
2023-02-15T08:14:16.664Z,58.40
2023-02-15T08:16:50.969Z,58.40
2023-02-15T08:19:25.254Z,58.40
2023-02-15T08:21:59.608Z,58.60
2023-02-15T08:24:31.297Z,59.00
2023-02-15T08:27:00.624Z,59.00
2023-02-15T08:29:31.074Z,58.60
2023-02-15T08:32:04.658Z,58.80
2023-02-15T08:34:36.546Z,58.90
2023-02-15T08:37:05.536Z,58.30
2023-02-15T08:39:34.635Z,58.50
2023-02-15T08:42:03.613Z,58.60
2023-02-15T08:44:32.565Z,58.70
2023-02-15T08:47:05.555Z,58.70
2023-02-15T08:49:34.833Z,58.20
2023-02-15T08:52:03.704Z,58.50
2023-02-15T08:54:32.772Z,58.30
2023-02-15T08:57:02.471Z,58.10
2023-02-15T08:59:31.426Z,57.90
2023-02-15T09:02:00.591Z,58.00
2023-02-15T09:04:29.624Z,58.50
2023-02-15T09:06:58.518Z,58.70
2023-02-15T09:09:27.428Z,58.80
2023-02-15T09:11:59.358Z,58.40
2023-02-15T09:14:29.542Z,58.50
2023-02-15T09:16:58.636Z,58.70
2023-02-15T09:19:27.936Z,58.70
2023-02-15T09:21:57.212Z,58.50
2023-02-15T09:24:26.620Z,57.70
2023-02-15T09:26:55.578Z,58.50
2023-02-15T09:29:24.818Z,58.60
2023-02-15T09:31:55.681Z,58.60
2023-02-15T09:34:25.882Z,58.50
2023-02-15T09:36:55.558Z,58.70
2023-02-15T09:39:27.149Z,58.10
2023-02-15T09:42:09.123Z,59.00
2023-02-15T09:45:18.469Z,58.60
2023-02-15T09:48:09.196Z,58.50
2023-02-15T09:50:56.212Z,58.80
2023-02-15T09:53:28.170Z,58.70
2023-02-15T09:56:19.555Z,58.90
2023-02-15T09:58:49.999Z,58.60
2023-02-15T10:01:36.983Z,58.80
2023-02-15T10:04:27.689Z,58.70
2023-02-15T10:07:03.651Z,58.80
2023-02-15T10:09:43.935Z,59.00
2023-02-15T10:12:24.966Z,59.00
2023-02-15T10:15:11.236Z,59.10
2023-02-15T10:18:17.137Z,59.10
2023-02-15T10:20:49.058Z,59.10
2023-02-15T10:23:49.005Z,59.30
2023-02-15T10:26:21.835Z,59.30
2023-02-15T10:29:32.731Z,59.40
2023-02-15T10:32:08.042Z,59.50
2023-02-15T10:34:53.162Z,59.60
2023-02-15T10:37:26.214Z,59.70
2023-02-15T10:40:13.005Z,59.80
2023-02-15T10:43:04.341Z,59.80
2023-02-15T10:46:05.430Z,59.80
2023-02-15T10:49:12.310Z,59.90
2023-02-15T10:52:15.415Z,60.00
2023-02-15T10:54:44.246Z,60.30
2023-02-15T10:57:20.840Z,60.20
2023-02-15T10:59:54.923Z,60.30
2023-02-15T11:02:39.199Z,60.20
2023-02-15T11:05:23.755Z,60.40
2023-02-15T11:07:58.323Z,60.60
2023-02-15T11:10:30.301Z,60.50
2023-02-15T11:13:05.013Z,60.80
2023-02-15T11:15:43.946Z,60.80
2023-02-15T11:18:19.794Z,60.90
2023-02-15T11:21:11.406Z,61.10
2023-02-15T11:23:49.127Z,61.00
2023-02-15T11:26:37.344Z,61.20
2023-02-15T11:29:43.568Z,61.20
2023-02-15T11:32:23.679Z,61.60
2023-02-15T11:35:01.844Z,61.40
2023-02-15T11:37:42.557Z,61.50
2023-02-15T11:40:43.788Z,61.70
2023-02-15T11:43:24.667Z,61.80
2023-02-15T11:45:53.809Z,61.90
2023-02-15T11:48:26.897Z,61.90
2023-02-15T11:50:55.866Z,62.10
2023-02-15T11:53:29.754Z,62.20
2023-02-15T11:55:58.482Z,62.30
2023-02-15T11:58:44.741Z,63.50
2023-02-15T12:01:35.134Z,63.10
2023-02-15T12:04:33.359Z,64.20
2023-02-15T12:07:05.448Z,64.60
2023-02-15T12:09:52.421Z,63.80
2023-02-15T12:12:35.891Z,63.70
2023-02-15T12:15:07.539Z,64.50
2023-02-15T12:17:42.251Z,64.30
2023-02-15T12:20:16.960Z,64.20
2023-02-15T12:22:54.385Z,64.30
2023-02-15T12:25:38.870Z,64.40
2023-02-15T12:28:40.711Z,64.80
2023-02-15T12:31:39.458Z,64.80
2023-02-15T12:34:33.300Z,65.40
2023-02-15T12:37:23.751Z,65.00
2023-02-15T12:39:58.770Z,65.30
2023-02-15T12:42:31.157Z,65.20
2023-02-15T12:45:21.484Z,65.60
2023-02-15T12:48:17.980Z,65.80
2023-02-15T12:50:57.517Z,66.90
2023-02-15T12:53:35.591Z,66.60
2023-02-15T12:56:12.765Z,66.70
2023-02-15T12:58:43.600Z,66.90
2023-02-15T13:01:15.605Z,67.00
2023-02-15T13:04:06.837Z,67.10
2023-02-15T13:06:38.348Z,67.30
2023-02-15T13:09:29.981Z,66.60
2023-02-15T13:12:13.029Z,66.30
2023-02-15T13:14:53.530Z,66.00
2023-02-15T13:17:33.220Z,65.90
2023-02-15T13:20:11.845Z,65.90
2023-02-15T13:22:47.750Z,65.90
2023-02-15T13:25:31.445Z,65.80
2023-02-15T13:28:12.983Z,65.90
2023-02-15T13:30:46.899Z,65.60
2023-02-15T13:33:18.816Z,65.50
2023-02-15T13:35:59.214Z,65.40
2023-02-15T13:38:49.551Z,65.20
2023-02-15T13:41:36.444Z,65.30
2023-02-15T13:44:13.501Z,64.70
2023-02-15T13:47:10.459Z,64.60
2023-02-15T13:49:52.828Z,64.70
2023-02-15T13:52:30.137Z,64.40
2023-02-15T13:55:17.430Z,64.40
2023-02-15T13:57:50.515Z,64.60
2023-02-15T14:00:46.930Z,64.10
2023-02-15T14:03:43.031Z,64.30
2023-02-15T14:06:41.041Z,64.50
2023-02-15T14:09:22.539Z,64.20
2023-02-15T14:12:05.708Z,64.10
2023-02-15T14:14:42.720Z,64.00
2023-02-15T14:17:24.390Z,63.90
2023-02-15T14:20:01.596Z,63.80
2023-02-15T14:22:46.836Z,63.70
2023-02-15T14:25:22.012Z,64.60
2023-02-15T14:28:25.217Z,63.80
2023-02-15T14:30:55.430Z,63.80
2023-02-15T14:33:44.901Z,63.70
2023-02-15T14:36:19.261Z,63.80
2023-02-15T14:38:57.101Z,63.70
2023-02-15T14:41:40.931Z,63.80
2023-02-15T14:44:25.121Z,63.70
2023-02-15T14:46:53.541Z,63.70
2023-02-15T14:49:33.584Z,63.90
2023-02-15T14:52:10.487Z,63.70
2023-02-15T14:54:39.458Z,63.70
2023-02-15T14:57:08.418Z,63.70
2023-02-15T14:59:48.745Z,63.80
2023-02-15T15:02:29.768Z,63.70
2023-02-15T15:05:09.900Z,63.80
2023-02-15T15:07:51.823Z,63.80
2023-02-15T15:10:22.016Z,63.70
2023-02-15T15:12:55.694Z,63.80
2023-02-15T15:15:33.319Z,63.80
2023-02-15T15:18:05.254Z,63.90
2023-02-15T15:20:53.679Z,63.90
2023-02-15T15:23:23.066Z,64.20
2023-02-15T15:26:17.767Z,63.90
2023-02-15T15:28:46.217Z,63.90
2023-02-15T15:31:33.847Z,64.40
2023-02-15T15:34:44.468Z,64.10
2023-02-15T15:37:58.011Z,64.00
2023-02-15T15:40:36.511Z,64.20
2023-02-15T15:43:23.629Z,64.10
2023-02-15T15:46:33.768Z,64.20
2023-02-15T15:49:15.568Z,64.90
2023-02-15T15:51:46.109Z,64.30
2023-02-15T15:54:32.404Z,64.30
2023-02-15T15:57:06.057Z,64.80
2023-02-15T15:59:36.417Z,64.30
2023-02-15T16:02:19.851Z,64.30
2023-02-15T16:04:49.877Z,64.60
2023-02-15T16:07:21.586Z,64.70
2023-02-15T16:10:05.286Z,64.80
2023-02-15T16:12:37.355Z,64.60
2023-02-15T16:15:35.966Z,64.60
2023-02-15T16:18:05.255Z,64.80
2023-02-15T16:20:37.741Z,64.70
2023-02-15T16:23:28.188Z,64.60
2023-02-15T16:26:03.460Z,64.70
2023-02-15T16:28:32.756Z,64.60
2023-02-15T16:31:17.564Z,64.80
2023-02-15T16:33:47.724Z,64.90
2023-02-15T16:36:30.953Z,64.90
2023-02-15T16:38:59.806Z,65.40
2023-02-15T16:41:31.649Z,65.00
2023-02-15T16:44:05.604Z,65.00
2023-02-15T16:46:42.014Z,65.20
2023-02-15T16:49:19.541Z,64.90
2023-02-15T16:52:10.684Z,65.00
2023-02-15T16:54:39.571Z,65.10
2023-02-15T16:57:16.650Z,65.40
2023-02-15T16:59:49.733Z,65.30
2023-02-15T17:02:43.211Z,65.40
2023-02-15T17:05:21.174Z,65.40
2023-02-15T17:08:13.146Z,65.30
2023-02-15T17:10:44.012Z,65.50
2023-02-15T17:13:20.504Z,65.60
2023-02-15T17:16:25.344Z,65.70
2023-02-15T17:18:55.895Z,66.10
2023-02-15T17:21:36.254Z,65.70
2023-02-15T17:24:06.622Z,65.80
2023-02-15T17:26:40.868Z,65.90
2023-02-15T17:29:36.750Z,66.00
2023-02-15T17:32:07.693Z,67.10
2023-02-15T17:34:50.924Z,66.60
2023-02-15T17:37:30.148Z,67.00
2023-02-15T17:40:00.683Z,66.70
2023-02-15T17:42:29.594Z,66.70
2023-02-15T17:45:01.120Z,66.70
2023-02-15T17:47:31.176Z,66.70
2023-02-15T17:50:00.414Z,66.80
2023-02-15T17:52:31.813Z,66.90
2023-02-15T17:55:20.272Z,67.20
2023-02-15T17:57:49.316Z,67.30
2023-02-15T18:00:36.795Z,67.00
2023-02-15T18:03:24.028Z,67.20
2023-02-15T18:06:11.211Z,67.00
2023-02-15T18:08:58.737Z,67.50
2023-02-15T18:11:39.190Z,67.60
2023-02-15T18:14:10.501Z,67.20
2023-02-15T18:16:44.562Z,67.90
2023-02-15T18:19:20.367Z,67.70
2023-02-15T18:21:49.856Z,68.40
2023-02-15T18:24:22.828Z,67.60
2023-02-15T18:26:52.764Z,67.60
2023-02-15T18:29:22.422Z,68.40
2023-02-15T18:31:55.582Z,67.90
2023-02-15T18:34:32.179Z,67.50
2023-02-15T18:37:03.710Z,67.90
2023-02-15T18:39:58.133Z,68.50
2023-02-15T18:42:33.379Z,68.20
2023-02-15T18:45:09.125Z,68.20
2023-02-15T18:47:38.067Z,68.00
2023-02-15T18:50:08.069Z,68.40
2023-02-15T18:52:39.775Z,68.80
2023-02-15T18:55:19.386Z,69.00
2023-02-15T18:57:50.078Z,69.20
2023-02-15T19:00:21.208Z,69.20
2023-02-15T19:02:50.298Z,69.60
2023-02-15T19:05:19.515Z,68.80
2023-02-15T19:07:51.670Z,69.40
2023-02-15T19:10:26.396Z,68.80
2023-02-15T19:12:56.291Z,69.00
2023-02-15T19:15:27.982Z,69.40
2023-02-15T19:17:57.378Z,69.20
2023-02-15T19:20:29.345Z,69.20
2023-02-15T19:22:59.814Z,69.70
2023-02-15T19:25:31.898Z,69.30
2023-02-15T19:28:01.221Z,69.80
2023-02-15T19:30:32.903Z,69.20
2023-02-15T19:33:03.296Z,69.40
2023-02-15T19:35:35.711Z,69.40
2023-02-15T19:38:09.160Z,69.60
2023-02-15T19:40:38.281Z,69.80
2023-02-15T19:43:20.169Z,69.40
2023-02-15T19:45:49.202Z,69.90
2023-02-15T19:48:18.091Z,69.60
2023-02-15T19:50:50.711Z,70.00
2023-02-15T19:53:27.880Z,70.00
2023-02-15T19:55:56.990Z,70.30
2023-02-15T19:58:25.972Z,71.10
2023-02-15T20:00:54.919Z,70.60
2023-02-15T20:03:23.896Z,70.30
2023-02-15T20:05:52.892Z,70.30
2023-02-15T20:08:23.952Z,70.60
2023-02-15T20:10:52.885Z,70.30
2023-02-15T20:13:22.583Z,70.40
2023-02-15T20:15:52.076Z,70.30
2023-02-15T20:18:22.603Z,70.30
2023-02-15T20:20:56.540Z,70.40
2023-02-15T20:23:30.305Z,70.30
2023-02-15T20:26:02.488Z,70.90
2023-02-15T20:28:32.894Z,70.60
2023-02-15T20:31:02.228Z,71.00
2023-02-15T20:33:31.412Z,71.40
2023-02-15T20:36:00.953Z,71.30
2023-02-15T20:38:32.715Z,71.10
2023-02-15T20:41:21.125Z,71.00
2023-02-15T20:43:50.049Z,71.20
2023-02-15T20:46:19.043Z,71.40
2023-02-15T20:48:47.942Z,71.50
2023-02-15T20:51:22.857Z,71.30
2023-02-15T20:53:51.796Z,71.10
2023-02-15T20:56:26.127Z,71.40
2023-02-15T20:58:55.474Z,71.70
2023-02-15T21:01:24.354Z,71.80
2023-02-15T21:03:53.377Z,71.70
2023-02-15T21:06:22.292Z,71.70
2023-02-15T21:08:51.151Z,71.60
2023-02-15T21:11:22.183Z,71.50
2023-02-15T21:13:54.196Z,71.30
2023-02-15T21:16:23.241Z,71.50
2023-02-15T21:18:52.147Z,71.60
2023-02-15T21:21:24.797Z,71.60
2023-02-15T21:23:54.816Z,72.40
2023-02-15T21:26:24.972Z,71.90
2023-02-15T21:28:54.014Z,72.00
2023-02-15T21:31:26.333Z,72.90
2023-02-15T21:33:56.322Z,72.80
2023-02-15T21:36:26.637Z,72.40
2023-02-15T21:38:55.858Z,72.30
2023-02-15T21:41:45.626Z,72.20
2023-02-15T21:44:39.618Z,72.10
2023-02-15T21:47:36.048Z,72.00
2023-02-15T21:50:25.334Z,72.30
2023-02-15T21:52:54.750Z,72.40
2023-02-15T21:55:23.729Z,72.40
2023-02-15T21:57:52.912Z,72.40
2023-02-15T22:00:24.994Z,72.20
2023-02-15T22:02:56.362Z,72.10
2023-02-15T22:05:35.592Z,72.50
2023-02-15T22:08:04.739Z,72.40
2023-02-15T22:10:34.539Z,72.30
2023-02-15T22:13:05.025Z,72.70
2023-02-15T22:15:37.752Z,72.20
2023-02-15T22:18:07.544Z,72.20
2023-02-15T22:20:36.453Z,72.30
2023-02-15T22:23:06.058Z,72.40
2023-02-15T22:25:34.951Z,72.70
2023-02-15T22:28:03.928Z,72.40
2023-02-15T22:30:38.487Z,72.50
2023-02-15T22:33:08.515Z,72.30
2023-02-15T22:35:38.813Z,72.30
2023-02-15T22:38:07.661Z,72.40
2023-02-15T22:40:36.522Z,72.40
2023-02-15T22:43:07.762Z,72.60
2023-02-15T22:45:37.443Z,72.50
2023-02-15T22:48:06.521Z,72.60
2023-02-15T22:50:37.561Z,72.50
2023-02-15T22:53:06.790Z,72.60
2023-02-15T22:55:39.031Z,72.50
2023-02-15T22:58:08.562Z,72.40
2023-02-15T23:00:41.376Z,72.60
2023-02-15T23:03:25.904Z,72.70
2023-02-15T23:05:54.430Z,72.80
2023-02-15T23:08:23.564Z,73.70
2023-02-15T23:10:59.041Z,72.70
2023-02-15T23:13:33.381Z,72.50
2023-02-15T23:16:04.468Z,73.70
2023-02-15T23:18:45.065Z,72.80
2023-02-15T23:21:27.842Z,72.70
2023-02-15T23:24:07.271Z,72.80
2023-02-15T23:26:36.186Z,72.50
2023-02-15T23:29:07.930Z,72.60
2023-02-15T23:31:40.372Z,72.60
2023-02-15T23:34:20.223Z,72.50
2023-02-15T23:36:49.359Z,72.70
2023-02-15T23:39:42.946Z,72.60
2023-02-15T23:42:18.165Z,72.40
2023-02-15T23:44:48.389Z,72.60
2023-02-15T23:47:52.663Z,72.50
2023-02-15T23:50:23.981Z,72.40
2023-02-15T23:52:59.106Z,72.60
2023-02-15T23:55:44.002Z,72.40
2023-02-15T23:58:38.517Z,72.50
